Terminal Aerodrome Forecast
Issued by NWS

Home | Current Version | Previous Version | Text Only | Print | Product List | Glossary On
Versions: 1 2 3 4 5 6 7 8 9 10 11 12 13 14 15 16 17 18 19 20 21
000
FTUS43 KGRR 202300
TAFBTL
TAF
KBTL 202340Z 2100/2124 VRB04KT 6SM -SN HZ OVC025
      TEMPO 2100/2104 4SM -FZDZSN
     FM211000 VRB03KT 2SM BR OVC015
     FM211500 18006KT 5SM BR OVC015=

USA.gov is the U.S. government's official web portal to all federal, state and local government web resources and services.